首页
METAR-TAF:

METAR-TAF

机场 :

德布勒森, 匈牙利

纬度: 47-29N, 经度: 021-36E, 海拔: 108米

当前天气观测

该预报发布于27分钟前的09:15 UTC
风速7节,风向西北,在西东北之间变化
温度 27°C
湿度 51%
气压 1011 hPa
能见度10公里或以上
1500米以下无云,无积雨云

METAR: LHDC 200915Z AUTO 32007KT 270V040 CAVOK 27/16 Q1011 NOSIG

时间: 11:42 (09:42 UTC)

预报

该预报发布于1小时和27分钟前的08:15 UTC
预报有效从20日的 09点(UTC)到 20日的 18点(UTC)
风速5节,风向
能见度10公里或以上
1500米以下无云,无积雨云

TAF: LHDC 200815Z 2009/2018 36005KT CAVOK

超过4000个机场的气象观测和天气预报(METAR&TAF报告)。

可查询的气象台以黄色和红色小点在地图上表示。

将鼠标移到小点上方,可查看气象台名称。

然后点击查看天气观测和预报。

如需切换地图:点击带黑十字的绿色按钮放大地图;点击带横线的绿色按钮缩小地图;或者点击绿色箭头查看邻近地区的地图。


METAR-TAF: